createdAt,value
2022-09-23T00:00:44.129Z,43.01
2022-09-23T00:03:11.236Z,43.19
2022-09-23T00:05:38.386Z,42.95
2022-09-23T00:08:10.908Z,43.20
2022-09-23T00:10:39.330Z,43.00
2022-09-23T00:13:06.450Z,42.82
2022-09-23T00:15:38.619Z,42.76
2022-09-23T00:18:05.300Z,43.23
2022-09-23T00:20:34.777Z,42.87
2022-09-23T00:23:01.447Z,43.04
2022-09-23T00:25:29.780Z,43.01
2022-09-23T00:27:56.781Z,43.03
2022-09-23T00:30:23.759Z,42.90
2022-09-23T00:32:50.398Z,43.15
2022-09-23T00:35:17.195Z,43.10
2022-09-23T00:37:43.732Z,42.72
2022-09-23T00:40:10.729Z,42.91
2022-09-23T00:42:37.336Z,43.05
2022-09-23T00:45:04.399Z,42.98
2022-09-23T00:47:32.491Z,42.76
2022-09-23T00:50:16.649Z,43.07
2022-09-23T00:52:43.599Z,42.83
2022-09-23T00:55:49.575Z,43.07
2022-09-23T00:58:19.052Z,42.85
2022-09-23T01:00:46.890Z,42.72
2022-09-23T01:03:14.201Z,42.95
2022-09-23T01:05:41.873Z,42.80
2022-09-23T01:08:10.510Z,42.94
2022-09-23T01:11:14.748Z,42.98
2022-09-23T01:13:47.677Z,42.77
2022-09-23T01:16:23.648Z,42.98
2022-09-23T01:19:00.640Z,42.83
2022-09-23T01:21:42.444Z,43.08
2022-09-23T01:24:24.156Z,42.89
2022-09-23T01:27:13.773Z,43.03
2022-09-23T01:30:01.785Z,42.88
2022-09-23T01:32:54.247Z,42.95
2022-09-23T01:35:35.289Z,42.81
2022-09-23T01:38:22.965Z,43.06
2022-09-23T01:41:00.044Z,43.03
2022-09-23T01:43:51.161Z,43.21
2022-09-23T01:46:21.689Z,43.17
2022-09-23T01:49:03.339Z,43.19
2022-09-23T01:51:34.448Z,43.09
2022-09-23T01:54:25.712Z,42.94
2022-09-23T01:56:53.567Z,42.93
2022-09-23T01:59:35.524Z,43.00
2022-09-23T02:02:08.240Z,43.06
2022-09-23T02:04:40.692Z,43.07
2022-09-23T02:07:15.191Z,43.16
2022-09-23T02:09:44.149Z,42.91
2022-09-23T02:12:15.206Z,43.03
2022-09-23T02:14:48.996Z,43.03
2022-09-23T02:17:18.629Z,43.01
2022-09-23T02:19:55.599Z,43.22
2022-09-23T02:22:41.396Z,43.04
2022-09-23T02:25:09.797Z,43.09
2022-09-23T02:27:56.029Z,43.28
2022-09-23T02:30:29.616Z,42.96
2022-09-23T02:33:08.575Z,43.10
2022-09-23T02:35:53.685Z,43.11
2022-09-23T02:38:39.351Z,42.84
2022-09-23T02:41:20.992Z,43.42
2022-09-23T02:43:56.557Z,43.34
2022-09-23T02:46:23.360Z,43.17
2022-09-23T02:48:56.702Z,43.39
2022-09-23T02:51:28.833Z,43.45
2022-09-23T02:53:58.895Z,43.51
2022-09-23T02:56:25.478Z,43.46
2022-09-23T02:58:53.568Z,43.10
2022-09-23T03:01:32.992Z,43.23
2022-09-23T03:04:17.261Z,43.16
2022-09-23T03:06:53.407Z,43.24
2022-09-23T03:09:33.669Z,43.20
2022-09-23T03:12:41.732Z,43.42
2022-09-23T03:15:30.116Z,43.33
2022-09-23T03:18:05.596Z,43.11
2022-09-23T03:20:36.539Z,43.50
2022-09-23T03:23:07.242Z,43.59
2022-09-23T03:25:37.749Z,43.17
2022-09-23T03:28:05.081Z,43.22
2022-09-23T03:30:35.426Z,43.33
2022-09-23T03:33:04.197Z,43.17
2022-09-23T03:35:33.137Z,43.31
2022-09-23T03:38:17.271Z,43.42
2022-09-23T03:40:47.778Z,43.45
2022-09-23T03:43:14.532Z,43.38
2022-09-23T03:45:42.651Z,43.34
2022-09-23T03:48:09.348Z,43.67
2022-09-23T03:50:36.389Z,43.75
2022-09-23T03:53:02.935Z,43.56
2022-09-23T03:55:29.477Z,43.67
2022-09-23T03:57:56.000Z,43.75
2022-09-23T04:00:22.591Z,43.67
2022-09-23T04:02:49.845Z,43.48
2022-09-23T04:05:16.584Z,43.65
2022-09-23T04:07:43.144Z,43.49
2022-09-23T04:10:10.373Z,43.71
2022-09-23T04:12:37.527Z,43.81
2022-09-23T04:15:04.576Z,43.72
2022-09-23T04:17:31.161Z,44.09
2022-09-23T04:19:57.722Z,43.98
2022-09-23T04:22:24.334Z,43.60
2022-09-23T04:24:50.893Z,43.78
2022-09-23T04:27:17.423Z,43.64
2022-09-23T04:29:44.131Z,43.73
2022-09-23T04:32:10.825Z,43.95
2022-09-23T04:34:37.436Z,44.03
2022-09-23T04:37:03.998Z,44.09
2022-09-23T04:39:30.588Z,44.02
2022-09-23T04:41:57.169Z,43.84
2022-09-23T04:44:24.117Z,44.23
2022-09-23T04:46:51.696Z,44.27
2022-09-23T04:49:18.493Z,44.03
2022-09-23T04:51:45.608Z,44.08
2022-09-23T04:54:12.703Z,44.12
2022-09-23T04:56:39.879Z,44.04
2022-09-23T04:59:07.347Z,43.99
2022-09-23T05:01:35.153Z,44.28
2022-09-23T05:04:05.413Z,44.11
2022-09-23T05:06:35.365Z,44.38
2022-09-23T05:09:06.868Z,43.90
2022-09-23T05:11:34.717Z,44.27
2022-09-23T05:14:01.337Z,44.37
2022-09-23T05:16:27.986Z,44.42
2022-09-23T05:18:54.699Z,44.41
2022-09-23T05:21:27.488Z,44.06
2022-09-23T05:23:56.606Z,44.12
2022-09-23T05:26:27.691Z,44.41
2022-09-23T05:28:54.696Z,44.17
2022-09-23T05:31:23.454Z,44.32
2022-09-23T05:33:55.867Z,44.10
2022-09-23T05:36:23.091Z,44.20
2022-09-23T05:38:51.287Z,44.32
2022-09-23T05:41:20.849Z,44.48
2022-09-23T05:43:47.500Z,44.59
2022-09-23T05:46:23.435Z,44.65
2022-09-23T05:48:50.641Z,44.67
2022-09-23T05:51:18.989Z,44.59
2022-09-23T05:53:46.249Z,44.57
2022-09-23T05:56:14.309Z,44.78
2022-09-23T05:58:41.086Z,44.64
2022-09-23T06:01:21.087Z,44.64
2022-09-23T06:03:48.868Z,44.35
2022-09-23T06:06:18.035Z,44.64
2022-09-23T06:08:45.816Z,44.39
2022-09-23T06:11:12.506Z,44.85
2022-09-23T06:13:39.717Z,44.58
2022-09-23T06:16:10.087Z,44.64
2022-09-23T06:18:39.244Z,44.60
2022-09-23T06:21:06.283Z,44.41
2022-09-23T06:23:33.487Z,44.98
2022-09-23T06:26:01.920Z,45.12
2022-09-23T06:28:33.001Z,44.84
2022-09-23T06:31:00.724Z,45.14
2022-09-23T06:33:35.676Z,45.14
2022-09-23T06:36:07.581Z,45.08
2022-09-23T06:38:34.627Z,45.17
2022-09-23T06:41:03.234Z,45.36
2022-09-23T06:43:30.497Z,45.54
2022-09-23T06:46:00.981Z,45.57
2022-09-23T06:48:28.533Z,45.05
2022-09-23T06:50:58.829Z,45.49
2022-09-23T06:53:25.613Z,45.38
2022-09-23T06:55:59.691Z,45.34
2022-09-23T06:58:26.905Z,45.42
2022-09-23T07:00:54.091Z,45.53
2022-09-23T07:03:20.969Z,45.25
2022-09-23T07:05:47.582Z,45.29
2022-09-23T07:08:14.122Z,45.44
2022-09-23T07:10:40.884Z,45.18
2022-09-23T07:13:07.443Z,44.99
2022-09-23T07:15:34.096Z,45.39
2022-09-23T07:18:00.859Z,45.24
2022-09-23T07:20:27.410Z,45.04
2022-09-23T07:22:54.161Z,45.09
2022-09-23T07:25:21.064Z,45.41
2022-09-23T07:27:48.956Z,45.18
2022-09-23T07:30:23.963Z,45.21
2022-09-23T07:32:52.202Z,45.36
2022-09-23T07:35:19.291Z,45.43
2022-09-23T07:37:46.152Z,45.38
2022-09-23T07:40:12.769Z,45.04
2022-09-23T07:42:40.897Z,45.43
2022-09-23T07:45:09.085Z,45.39
2022-09-23T07:47:35.854Z,45.46
2022-09-23T07:50:02.381Z,45.00
2022-09-23T07:52:28.918Z,45.49
2022-09-23T07:54:55.509Z,45.07
2022-09-23T07:57:22.091Z,45.25
2022-09-23T07:59:48.641Z,45.16
2022-09-23T08:02:16.433Z,45.01
2022-09-23T08:04:43.052Z,45.02
2022-09-23T08:07:12.545Z,45.00
2022-09-23T08:09:41.741Z,45.24
2022-09-23T08:12:15.202Z,45.15
2022-09-23T08:14:42.929Z,44.92
2022-09-23T08:17:09.580Z,45.01
2022-09-23T08:19:36.140Z,44.88
2022-09-23T08:22:02.683Z,45.24
2022-09-23T08:24:32.258Z,44.91
2022-09-23T08:26:59.079Z,44.89
2022-09-23T08:29:26.344Z,44.90
2022-09-23T08:31:53.605Z,44.79
2022-09-23T08:34:21.369Z,44.79
2022-09-23T08:36:48.666Z,44.48
2022-09-23T08:39:17.056Z,44.75
2022-09-23T08:42:11.765Z,44.62
2022-09-23T08:44:57.529Z,44.48
2022-09-23T08:47:31.211Z,44.72
2022-09-23T08:50:06.791Z,44.87
2022-09-23T08:52:43.032Z,44.80
2022-09-23T08:55:12.592Z,44.96
2022-09-23T08:58:24.464Z,44.74
2022-09-23T09:01:09.633Z,44.88
2022-09-23T09:03:41.204Z,44.58
2022-09-23T09:06:13.669Z,44.64
2022-09-23T09:08:40.230Z,44.61
2022-09-23T09:11:06.929Z,44.41
2022-09-23T09:13:35.833Z,44.26
2022-09-23T09:16:14.434Z,44.25
2022-09-23T09:19:01.281Z,43.97
2022-09-23T09:21:38.705Z,43.98
2022-09-23T09:24:14.294Z,44.29
2022-09-23T09:26:40.853Z,44.11
2022-09-23T09:29:36.778Z,44.27
2022-09-23T09:32:14.304Z,44.41
2022-09-23T09:34:45.388Z,44.08
2022-09-23T09:37:33.672Z,43.97
2022-09-23T09:40:00.399Z,44.25
2022-09-23T09:42:39.982Z,44.15
2022-09-23T09:45:45.459Z,44.40
2022-09-23T09:48:17.713Z,44.17
2022-09-23T09:50:44.283Z,44.35
2022-09-23T09:53:25.648Z,44.03
2022-09-23T09:56:09.227Z,44.33
2022-09-23T09:58:54.178Z,44.21
2022-09-23T10:01:25.266Z,44.11
2022-09-23T10:03:59.163Z,44.37
2022-09-23T10:06:28.844Z,44.38
2022-09-23T10:09:01.686Z,44.22
2022-09-23T10:11:29.383Z,44.14
2022-09-23T10:14:06.263Z,44.28
2022-09-23T10:16:37.247Z,44.08
2022-09-23T10:19:04.620Z,44.39
2022-09-23T10:21:36.342Z,44.11
2022-09-23T10:24:05.785Z,44.17
2022-09-23T10:26:34.845Z,43.87
2022-09-23T10:29:03.936Z,43.96
2022-09-23T10:31:35.146Z,44.06
2022-09-23T10:34:27.931Z,44.10
2022-09-23T10:37:12.632Z,44.12
2022-09-23T10:39:58.612Z,44.01
2022-09-23T10:43:04.011Z,43.73
2022-09-23T10:45:53.274Z,43.97
2022-09-23T10:48:25.848Z,43.90
2022-09-23T10:50:53.657Z,44.03
2022-09-23T10:53:47.353Z,43.82
2022-09-23T10:56:16.676Z,43.86
2022-09-23T10:58:55.090Z,43.93
2022-09-23T11:01:41.294Z,43.59
2022-09-23T11:04:52.567Z,43.86
2022-09-23T11:07:40.710Z,43.76
2022-09-23T11:10:45.353Z,43.96
2022-09-23T11:13:24.700Z,43.87
2022-09-23T11:16:13.459Z,43.86
2022-09-23T11:18:51.737Z,43.93
2022-09-23T11:21:45.808Z,43.68
2022-09-23T11:24:52.144Z,43.72
2022-09-23T11:27:27.780Z,43.63
2022-09-23T11:30:06.545Z,43.95
2022-09-23T11:32:55.028Z,43.73
2022-09-23T11:35:28.008Z,43.82
2022-09-23T11:38:12.051Z,43.43
2022-09-23T11:40:43.892Z,43.76
2022-09-23T11:43:18.583Z,43.75
2022-09-23T11:45:50.063Z,43.59
2022-09-23T11:48:17.434Z,43.33
2022-09-23T11:50:50.517Z,43.43
2022-09-23T11:53:37.726Z,43.60
2022-09-23T11:56:12.182Z,43.65
2022-09-23T12:01:31.257Z,43.27
2022-09-23T12:04:19.266Z,43.39
2022-09-23T12:06:50.092Z,43.55
2022-09-23T12:09:41.006Z,43.27
2022-09-23T12:12:27.243Z,43.31
2022-09-23T12:14:53.863Z,43.36
2022-09-23T12:17:54.770Z,43.46
2022-09-23T12:20:35.102Z,43.52
2022-09-23T12:23:05.936Z,43.14
2022-09-23T12:25:53.241Z,43.48
2022-09-23T12:28:24.570Z,43.42
2022-09-23T12:30:54.256Z,43.18
2022-09-23T12:33:26.472Z,43.49
2022-09-23T12:35:54.702Z,43.15
2022-09-23T12:38:40.431Z,43.28
2022-09-23T12:41:36.578Z,43.20
2022-09-23T12:44:14.777Z,43.28
2022-09-23T12:46:42.796Z,43.40
2022-09-23T12:49:24.071Z,43.21
2022-09-23T12:52:13.720Z,43.30
2022-09-23T12:54:41.761Z,43.00
2022-09-23T12:57:12.140Z,43.17
2022-09-23T13:00:12.592Z,43.09
2022-09-23T13:02:41.965Z,43.46
2022-09-23T13:05:35.693Z,43.20
2022-09-23T13:08:12.800Z,43.30
2022-09-23T13:10:49.710Z,43.09
2022-09-23T13:13:24.943Z,43.33
2022-09-23T13:15:52.164Z,43.19
2022-09-23T13:18:18.613Z,43.14
2022-09-23T13:20:47.078Z,43.04
2022-09-23T13:23:22.443Z,43.35
2022-09-23T13:25:51.537Z,43.30
2022-09-23T13:28:58.529Z,43.15
2022-09-23T13:31:25.123Z,43.19
2022-09-23T13:33:56.725Z,43.31
2022-09-23T13:36:23.491Z,43.13
2022-09-23T13:38:50.038Z,43.04
2022-09-23T13:41:20.805Z,43.09
2022-09-23T13:43:51.082Z,43.19
2022-09-23T13:46:22.690Z,43.24
2022-09-23T13:48:52.286Z,43.26
2022-09-23T13:51:30.646Z,43.59
2022-09-23T13:53:59.501Z,43.39
2022-09-23T13:56:31.185Z,43.55
2022-09-23T13:59:26.977Z,43.34
2022-09-23T14:02:27.523Z,43.26
2022-09-23T14:04:58.607Z,43.33
2022-09-23T14:07:25.298Z,43.32
2022-09-23T14:09:54.914Z,43.46
2022-09-23T14:12:24.729Z,43.34
2022-09-23T14:14:51.887Z,43.34
2022-09-23T14:17:20.843Z,43.55
2022-09-23T14:19:47.662Z,43.27
2022-09-23T14:22:25.496Z,43.48
2022-09-23T14:24:52.696Z,43.34
2022-09-23T14:27:33.154Z,43.58
2022-09-23T14:30:02.245Z,43.75
2022-09-23T14:32:29.848Z,43.53
2022-09-23T14:35:05.428Z,43.58
2022-09-23T14:37:56.371Z,43.54
2022-09-23T14:40:32.705Z,43.81
2022-09-23T14:43:02.344Z,43.76
2022-09-23T14:45:33.261Z,43.69
2022-09-23T14:48:02.080Z,43.79
2022-09-23T14:50:48.551Z,43.99
2022-09-23T14:53:24.066Z,43.94
2022-09-23T14:55:57.446Z,43.86
2022-09-23T14:58:30.271Z,43.85
2022-09-23T15:00:59.568Z,43.69
2022-09-23T15:03:30.303Z,43.82
2022-09-23T15:06:01.099Z,43.82
2022-09-23T15:08:29.676Z,43.90
2022-09-23T15:10:57.320Z,44.30
2022-09-23T15:13:31.385Z,44.11
2022-09-23T15:16:00.168Z,44.24
2022-09-23T15:18:29.167Z,44.20
2022-09-23T15:20:58.033Z,44.38
2022-09-23T15:23:43.779Z,44.02
2022-09-23T15:26:40.861Z,43.78
2022-09-23T15:29:10.467Z,44.11
2022-09-23T15:31:37.726Z,43.75
2022-09-23T15:34:10.046Z,43.92
2022-09-23T15:36:38.283Z,44.13
2022-09-23T15:39:06.683Z,44.17
2022-09-23T15:41:33.611Z,44.20
2022-09-23T15:44:29.566Z,44.04
2022-09-23T15:46:59.192Z,43.94
2022-09-23T15:49:39.173Z,44.33
2022-09-23T15:52:08.229Z,43.93
2022-09-23T15:54:34.785Z,43.91
2022-09-23T15:57:01.394Z,44.18
2022-09-23T15:59:28.823Z,43.97
2022-09-23T16:01:56.554Z,44.23
2022-09-23T16:04:23.697Z,44.07
2022-09-23T16:06:50.314Z,44.11
2022-09-23T16:09:16.905Z,43.92
2022-09-23T16:11:47.917Z,44.06
2022-09-23T16:14:16.201Z,43.79
2022-09-23T16:16:45.111Z,44.18
2022-09-23T16:19:12.419Z,44.08
2022-09-23T16:21:40.859Z,43.76
2022-09-23T16:24:17.973Z,44.03
2022-09-23T16:26:46.582Z,43.81
2022-09-23T16:29:13.485Z,44.00
2022-09-23T16:31:40.216Z,43.98
2022-09-23T16:34:06.815Z,43.68
2022-09-23T16:36:35.932Z,43.65
2022-09-23T16:39:04.694Z,44.10
2022-09-23T16:41:31.715Z,43.71
2022-09-23T16:44:00.621Z,43.99
2022-09-23T16:46:27.952Z,43.86
2022-09-23T16:48:55.617Z,44.16
2022-09-23T16:51:26.472Z,43.92
2022-09-23T16:53:53.848Z,43.97
2022-09-23T16:56:25.840Z,44.11
2022-09-23T16:58:55.284Z,44.01
2022-09-23T17:01:42.958Z,43.97
2022-09-23T17:04:10.668Z,44.06
2022-09-23T17:06:43.243Z,44.55
2022-09-23T17:09:11.049Z,44.23
2022-09-23T17:11:38.176Z,44.49
2022-09-23T17:14:05.659Z,44.42
2022-09-23T17:16:33.673Z,44.40
2022-09-23T17:19:05.357Z,44.80
2022-09-23T17:21:31.938Z,44.65
2022-09-23T17:23:58.468Z,44.84
2022-09-23T17:26:26.344Z,44.90
2022-09-23T17:28:57.053Z,44.75
2022-09-23T17:31:24.705Z,44.53
2022-09-23T17:33:52.678Z,44.47
2022-09-23T17:36:20.181Z,44.68
2022-09-23T17:38:48.190Z,44.77
2022-09-23T17:41:17.265Z,44.68
2022-09-23T17:43:45.357Z,44.56
2022-09-23T17:46:18.690Z,44.29
2022-09-23T17:48:45.443Z,44.38
2022-09-23T17:51:14.241Z,44.42
2022-09-23T17:53:42.184Z,44.43
2022-09-23T17:56:20.325Z,44.56
2022-09-23T17:58:48.396Z,44.58
2022-09-23T18:01:25.787Z,44.82
2022-09-23T18:03:56.593Z,44.58
2022-09-23T18:06:25.368Z,44.20
2022-09-23T18:08:52.530Z,44.38
2022-09-23T18:11:24.136Z,44.50
2022-09-23T18:13:56.345Z,44.42
2022-09-23T18:16:25.435Z,44.68
2022-09-23T18:18:57.217Z,44.39
2022-09-23T18:21:26.064Z,44.65
2022-09-23T18:23:52.692Z,44.43
2022-09-23T18:26:23.986Z,44.26
2022-09-23T18:28:53.615Z,44.42
2022-09-23T18:31:20.441Z,44.40
2022-09-23T18:33:51.396Z,44.37
2022-09-23T18:36:19.141Z,44.51
2022-09-23T18:38:46.143Z,44.29
2022-09-23T18:41:13.032Z,44.60
2022-09-23T18:43:43.116Z,44.63
2022-09-23T18:46:11.691Z,44.45
2022-09-23T18:48:57.086Z,44.58
2022-09-23T18:51:26.257Z,44.46
2022-09-23T18:53:57.610Z,44.70
2022-09-23T18:56:29.625Z,44.46
2022-09-23T18:58:56.487Z,44.57
2022-09-23T19:01:23.726Z,44.50
2022-09-23T19:03:56.904Z,44.58
2022-09-23T19:06:24.237Z,44.88
2022-09-23T19:08:52.968Z,44.69
2022-09-23T19:11:19.984Z,44.64
2022-09-23T19:13:46.581Z,44.87
2022-09-23T19:16:16.659Z,44.49
2022-09-23T19:18:46.391Z,44.40
2022-09-23T19:21:14.190Z,44.83
2022-09-23T19:23:47.524Z,44.98
2022-09-23T19:26:16.467Z,44.92
2022-09-23T19:28:50.966Z,44.69
2022-09-23T19:31:23.129Z,44.85
2022-09-23T19:34:01.288Z,44.60
2022-09-23T19:36:30.885Z,44.50
2022-09-23T19:39:03.200Z,44.73
2022-09-23T19:41:35.336Z,44.74
2022-09-23T19:44:03.368Z,44.99
2022-09-23T19:46:31.193Z,44.70
2022-09-23T19:48:58.172Z,44.85
2022-09-23T19:51:24.786Z,44.90
2022-09-23T19:53:51.308Z,44.79
2022-09-23T19:56:18.197Z,44.89
2022-09-23T19:58:52.214Z,45.05
2022-09-23T20:01:19.348Z,45.06
2022-09-23T20:03:47.127Z,44.79
2022-09-23T20:06:14.365Z,45.05
2022-09-23T20:08:41.415Z,45.09
2022-09-23T20:11:16.529Z,44.81
2022-09-23T20:13:45.253Z,45.23
2022-09-23T20:16:17.868Z,44.99
2022-09-23T20:18:45.968Z,44.91
2022-09-23T20:21:14.685Z,44.92
2022-09-23T20:23:41.797Z,45.09
2022-09-23T20:26:27.404Z,45.16
2022-09-23T20:28:53.959Z,45.04
2022-09-23T20:31:22.138Z,45.41
2022-09-23T20:33:53.708Z,45.51
2022-09-23T20:36:20.281Z,45.40
2022-09-23T20:38:46.824Z,45.27
2022-09-23T20:41:14.572Z,45.15
2022-09-23T20:43:41.684Z,45.39
2022-09-23T20:46:09.186Z,45.29
2022-09-23T20:48:35.762Z,45.40
2022-09-23T20:51:03.572Z,45.19
2022-09-23T20:53:31.159Z,45.48
2022-09-23T20:55:58.870Z,45.27
2022-09-23T20:58:30.226Z,45.31
2022-09-23T21:01:14.727Z,45.37
2022-09-23T21:03:43.758Z,45.53
2022-09-23T21:06:11.508Z,45.52
2022-09-23T21:08:38.111Z,45.89
2022-09-23T21:11:08.004Z,46.26
2022-09-23T21:13:35.312Z,46.15
2022-09-23T21:16:11.554Z,46.07
2022-09-23T21:18:38.570Z,46.08
2022-09-23T21:21:06.364Z,46.04
2022-09-23T21:23:35.411Z,46.27
2022-09-23T21:26:09.811Z,45.90
2022-09-23T21:28:38.321Z,46.02
2022-09-23T21:31:07.735Z,45.97
2022-09-23T21:33:36.698Z,46.00
2022-09-23T21:36:05.059Z,45.98
2022-09-23T21:38:34.771Z,46.18
2022-09-23T21:41:02.968Z,46.06
2022-09-23T21:43:33.285Z,45.78
2022-09-23T21:46:02.314Z,46.06
2022-09-23T21:48:30.216Z,46.00
2022-09-23T21:50:58.490Z,46.08
2022-09-23T21:53:25.880Z,45.79
2022-09-23T21:55:52.554Z,45.94
2022-09-23T21:58:19.139Z,45.82
2022-09-23T22:00:45.966Z,45.91
2022-09-23T22:03:12.569Z,45.78
2022-09-23T22:05:41.787Z,45.83
2022-09-23T22:08:09.133Z,46.09
2022-09-23T22:10:36.845Z,45.79
2022-09-23T22:13:03.937Z,45.82
2022-09-23T22:15:35.698Z,46.02
2022-09-23T22:18:02.505Z,46.00
2022-09-23T22:20:29.207Z,46.06
2022-09-23T22:22:55.960Z,45.91
2022-09-23T22:25:22.536Z,46.09
2022-09-23T22:28:07.487Z,45.96
2022-09-23T22:30:52.510Z,46.21
2022-09-23T22:33:19.204Z,46.34
2022-09-23T22:35:45.799Z,46.34
2022-09-23T22:38:12.533Z,46.45
2022-09-23T22:40:42.774Z,46.10
2022-09-23T22:43:09.316Z,46.03
2022-09-23T22:45:37.594Z,46.16
2022-09-23T22:48:04.489Z,46.21
2022-09-23T22:50:31.033Z,46.03
2022-09-23T22:52:57.655Z,46.04
2022-09-23T22:55:25.339Z,46.13
2022-09-23T22:57:51.880Z,46.14
2022-09-23T23:00:18.467Z,46.24
2022-09-23T23:02:44.993Z,46.21
2022-09-23T23:05:11.628Z,46.12
2022-09-23T23:07:38.259Z,46.25
2022-09-23T23:10:10.352Z,46.17
2022-09-23T23:12:37.219Z,46.22
2022-09-23T23:15:03.882Z,46.00
2022-09-23T23:17:30.429Z,46.44
2022-09-23T23:19:57.874Z,46.15
2022-09-23T23:22:27.256Z,46.13
2022-09-23T23:24:54.678Z,46.32
2022-09-23T23:27:21.233Z,46.26
2022-09-23T23:29:47.794Z,46.27
2022-09-23T23:32:15.328Z,46.32
2022-09-23T23:34:42.108Z,46.22
2022-09-23T23:37:08.647Z,46.32
2022-09-23T23:39:35.236Z,46.25
2022-09-23T23:42:01.793Z,46.31
2022-09-23T23:44:31.101Z,46.25
2022-09-23T23:46:57.696Z,46.39
2022-09-23T23:49:24.362Z,46.24
2022-09-23T23:51:50.954Z,46.38
2022-09-23T23:54:17.527Z,46.35
2022-09-23T23:56:44.100Z,46.29
2022-09-23T23:59:11.093Z,46.61
